WEATHER/FLIGHT PLANNING

Hattiesburg Radar

 

 

 

 

Weather Links

Flight Planning Links

 

METAR

2019/05/19 14:19 KHBG 191419Z AUTO 04004KT 10SM -RA FEW009 SCT019 OVC025 23/22 A3002 RMK AO2 RAB15 P0000 T02330217

TAF

2019/05/19 12:27 TAF KHBG 191124Z 1912/2012 16006KT P6SM BKN015 FM191300 16008KT P6SM BKN025 FM191400 16010KT P6SM OVC050 FM191600 18010KT P6SM -RA VCTS BKN035CB FM200100 16005KT P6SM OVC100